White Oak, PA (15131)

12:38 AM EDT on July 31, 2016 (GMT -0400)
White Oak, PA 15131-1531 | | Change Station

Elev 1076 ft 40.35 °N, 79.82 °W | Updated 9 seconds ago

Mostly Cloudy
Mostly Cloudy
70.9 °F
Feels Like 70.9 °F
N
0.0
Wind Variable Wind from SW
Gusts 2.5 mph

Today
High -- | Low -- °F
--% Chance of Precip.
Yesterday
High -- | Low -- °F
Precip. -- in
Pressure 30.00 in
Visibility 4.0 miles
Clouds Mostly Cloudy 500 ft
Mostly Cloudy 900 ft
Dew Point 70 °F
Humidity 97%
Rainfall 0.00 in
Snow Depth Not available.
6:16 AM 8:34 PM
Waning Crescent, 9% visible
SPECI KAGC 310430Z AUTO 20005KT 4SM BR BKN005 BKN009 21/19 A3000 RMK AO2 CIG 003V007 T02110194 TSNO
Pressure 30.00 in
Visibility 4.0 miles
Clouds Mostly Cloudy 500 ft
Mostly Cloudy 900 ft
Dew Point 70 °F
Humidity 97%
Rainfall 0.00 in
Snow Depth Not available.
6:16 AM 8:34 PM
Waning Crescent, 9% visible
SPECI KAGC 310430Z AUTO 20005KT 4SM BR BKN005 BKN009 21/19 A3000 RMK AO2 CIG 003V007 T02110194 TSNO

10-Day Weather Forecast

Almanac

Astronomy

Jul. 31, 2016 Rise Set
Actual Time
Civil Twilight
Nautical Twilight
Astronomical Twilight
Moon
Length of Visible Light
Length of Day
Tomorrow will be .
, % of the Moon is Illuminated

Today's Extremes

State Highs State Lows

Community

WunderPhotos

Upload Photos

1,928,759 photos uploaded!

WunderBlog® & News

Nearby

Air Quality

  Air Quality AQ Index Pollutant
Not available.

Snow Depth

Station Depth Elevation

Earthquake Activity

City Distance Mag. Time & Date
Minimum magnitude displayed is 2.5.

Coastal Water Temperatures

Place Temperature

Stations

Nearby Weather Stations

Station Location Temp. Windchill Dew Point Humidity Wind Precip. Elev Updated Type
                   

Watches & Warnings

There are currently no watches in effect.